createdAt,value
2023-01-09T00:01:13.258Z,93611.84
2023-01-09T00:03:39.767Z,93625.91
2023-01-09T00:06:07.362Z,93641.00
2023-01-09T00:08:33.785Z,93649.16
2023-01-09T00:11:00.288Z,93654.50
2023-01-09T00:13:26.695Z,93658.19
2023-01-09T00:15:53.096Z,93658.53
2023-01-09T00:18:19.568Z,93663.63
2023-01-09T00:20:46.062Z,93663.78
2023-01-09T00:23:13.183Z,93652.19
2023-01-09T00:25:42.428Z,93656.56
2023-01-09T00:28:09.177Z,93650.63
2023-01-09T00:30:35.722Z,93652.59
2023-01-09T00:33:02.320Z,93655.13
2023-01-09T00:35:28.960Z,93641.38
2023-01-09T00:37:55.408Z,93643.53
2023-01-09T00:40:22.584Z,93640.63
2023-01-09T00:42:55.073Z,93635.78
2023-01-09T00:45:28.199Z,93632.34
2023-01-09T00:47:57.930Z,93640.63
2023-01-09T00:50:27.285Z,93646.50
2023-01-09T00:52:56.561Z,93633.41
2023-01-09T00:55:24.125Z,93628.00
2023-01-09T00:57:50.616Z,93620.25
2023-01-09T01:00:18.012Z,93634.28
2023-01-09T01:02:45.042Z,93630.63
2023-01-09T01:05:29.641Z,93630.22
2023-01-09T01:07:56.126Z,93617.47
2023-01-09T01:10:25.127Z,93612.38
2023-01-09T01:12:51.956Z,93630.75
2023-01-09T01:15:20.847Z,93619.63
2023-01-09T01:17:48.001Z,93632.69
2023-01-09T01:20:18.481Z,93617.94
2023-01-09T01:22:45.083Z,93605.91
2023-01-09T01:25:13.708Z,93606.91
2023-01-09T01:27:41.200Z,93602.84
2023-01-09T01:30:10.093Z,93609.09
2023-01-09T01:32:36.963Z,93603.25
2023-01-09T01:35:04.119Z,93619.25
2023-01-09T01:37:31.140Z,93607.94
2023-01-09T01:39:57.681Z,93604.03
2023-01-09T01:42:24.605Z,93620.00
2023-01-09T01:45:05.836Z,93615.72
2023-01-09T01:47:40.124Z,93612.00
2023-01-09T01:50:12.591Z,93607.88
2023-01-09T01:52:39.406Z,93605.94
2023-01-09T01:55:08.975Z,93607.75
2023-01-09T01:57:37.440Z,93603.81
2023-01-09T02:00:06.521Z,93597.41
2023-01-09T02:02:33.224Z,93596.03
2023-01-09T02:05:04.640Z,93610.53
2023-01-09T02:07:31.123Z,93615.81
2023-01-09T02:09:58.412Z,93620.66
2023-01-09T02:12:27.121Z,93618.09
2023-01-09T02:14:58.587Z,93618.88
2023-01-09T02:17:45.711Z,93617.28
2023-01-09T02:20:44.757Z,93614.13
2023-01-09T02:23:53.779Z,93617.47
2023-01-09T02:26:52.233Z,93608.72
2023-01-09T02:29:55.050Z,93609.84
2023-01-09T02:32:35.654Z,93619.47
2023-01-09T02:35:13.180Z,93612.25
2023-01-09T02:37:48.500Z,93613.22
2023-01-09T02:40:22.297Z,93610.84
2023-01-09T02:42:49.599Z,93599.13
2023-01-09T02:45:16.153Z,93588.59
2023-01-09T02:47:45.454Z,93587.81
2023-01-09T02:50:15.766Z,93584.28
2023-01-09T02:52:59.502Z,93595.25
2023-01-09T02:55:41.110Z,93595.84
2023-01-09T02:58:13.388Z,93589.97
2023-01-09T03:00:50.562Z,93572.97
2023-01-09T03:03:26.741Z,93582.94
2023-01-09T03:05:58.408Z,93594.81
2023-01-09T03:08:31.794Z,93588.00
2023-01-09T03:11:01.394Z,93581.75
2023-01-09T03:13:33.484Z,93585.47
2023-01-09T03:16:04.914Z,93580.78
2023-01-09T03:18:34.489Z,93583.72
2023-01-09T03:21:02.554Z,93567.13
2023-01-09T03:23:45.274Z,93560.06
2023-01-09T03:26:11.770Z,93575.31
2023-01-09T03:28:38.290Z,93573.38
2023-01-09T03:31:04.968Z,93567.53
2023-01-09T03:33:34.046Z,93572.78
2023-01-09T03:36:00.524Z,93575.31
2023-01-09T03:38:27.014Z,93585.13
2023-01-09T03:40:53.578Z,93576.50
2023-01-09T03:43:19.969Z,93581.44
2023-01-09T03:45:46.468Z,93571.47
2023-01-09T03:48:12.937Z,93577.16
2023-01-09T03:50:41.787Z,93574.03
2023-01-09T03:53:08.336Z,93577.16
2023-01-09T03:55:34.778Z,93578.72
2023-01-09T03:58:01.216Z,93571.88
2023-01-09T04:00:27.786Z,93588.09
2023-01-09T04:02:54.203Z,93587.31
2023-01-09T04:05:20.660Z,93592.91
2023-01-09T04:07:47.917Z,93583.69
2023-01-09T04:10:14.380Z,93587.91
2023-01-09T04:12:40.774Z,93594.44
2023-01-09T04:15:07.865Z,93589.06
2023-01-09T04:17:34.303Z,93599.97
2023-01-09T04:20:00.797Z,93619.47
2023-01-09T04:22:27.253Z,93612.78
2023-01-09T04:24:54.345Z,93616.00
2023-01-09T04:27:22.467Z,93608.38
2023-01-09T04:29:49.222Z,93618.34
2023-01-09T04:32:15.667Z,93619.25
2023-01-09T04:34:42.193Z,93637.75
2023-01-09T04:37:08.892Z,93645.34
2023-01-09T04:39:35.524Z,93655.53
2023-01-09T04:42:02.712Z,93651.41
2023-01-09T04:44:29.361Z,93654.13
2023-01-09T04:46:58.119Z,93666.47
2023-01-09T04:49:25.296Z,93668.53
2023-01-09T04:51:52.389Z,93678.72
2023-01-09T04:54:18.963Z,93681.84
2023-01-09T04:56:45.667Z,93676.47
2023-01-09T04:59:12.879Z,93688.03
2023-01-09T05:01:39.715Z,93701.88
2023-01-09T05:04:06.749Z,93704.03
2023-01-09T05:06:33.950Z,93720.72
2023-01-09T05:09:02.983Z,93718.94
2023-01-09T05:11:29.523Z,93740.56
2023-01-09T05:13:56.078Z,93729.78
2023-01-09T05:16:23.279Z,93744.50
2023-01-09T05:18:50.986Z,93740.13
2023-01-09T05:21:17.435Z,93769.31
2023-01-09T05:23:43.855Z,93762.28
2023-01-09T05:26:10.307Z,93777.16
2023-01-09T05:28:36.815Z,93789.75
2023-01-09T05:31:03.290Z,93788.56
2023-01-09T05:33:30.372Z,93793.50
2023-01-09T05:35:56.820Z,93816.25
2023-01-09T05:38:23.286Z,93804.47
2023-01-09T05:40:49.677Z,93811.78
2023-01-09T05:43:16.074Z,93827.28
2023-01-09T05:45:43.258Z,93838.09
2023-01-09T05:48:09.709Z,93829.25
2023-01-09T05:50:36.732Z,93817.97
2023-01-09T05:53:03.229Z,93842.66
2023-01-09T05:55:29.652Z,93831.81
2023-01-09T05:57:56.082Z,93835.41
2023-01-09T06:00:25.743Z,93843.47
2023-01-09T06:02:52.207Z,93834.66
2023-01-09T06:05:18.696Z,93831.09
2023-01-09T06:07:45.791Z,93840.31
2023-01-09T06:10:13.947Z,93845.25
2023-01-09T06:12:41.624Z,93840.56
2023-01-09T06:15:09.232Z,93850.53
2023-01-09T06:17:35.658Z,93847.03
2023-01-09T06:20:02.150Z,93857.78
2023-01-09T06:22:28.597Z,93884.22
2023-01-09T06:24:55.622Z,93898.72
2023-01-09T06:27:22.017Z,93903.25
2023-01-09T06:29:48.366Z,93889.78
2023-01-09T06:32:14.966Z,93902.13
2023-01-09T06:34:41.364Z,93911.13
2023-01-09T06:37:07.782Z,93904.47
2023-01-09T06:39:34.391Z,93897.41
2023-01-09T06:42:01.515Z,93908.31
2023-01-09T06:44:27.916Z,93930.19
2023-01-09T06:46:54.402Z,93929.47
2023-01-09T06:49:22.829Z,93923.09
2023-01-09T06:51:49.611Z,93933.28
2023-01-09T06:54:16.062Z,93918.44
2023-01-09T06:56:42.615Z,93911.97
2023-01-09T06:59:09.954Z,93938.00
2023-01-09T07:01:38.873Z,93945.44
2023-01-09T07:04:05.488Z,93933.50
2023-01-09T07:06:32.336Z,93948.19
2023-01-09T07:08:58.746Z,93959.16
2023-01-09T07:11:25.190Z,93951.31
2023-01-09T07:13:51.574Z,93950.94
2023-01-09T07:16:18.645Z,93980.88
2023-01-09T07:18:45.049Z,93981.88
2023-01-09T07:21:11.432Z,93971.09
2023-01-09T07:23:37.947Z,93984.81
2023-01-09T07:26:04.832Z,93985.38
2023-01-09T07:28:31.253Z,93985.03
2023-01-09T07:31:01.696Z,93997.13
2023-01-09T07:33:28.763Z,94034.13
2023-01-09T07:35:55.431Z,93995.56
2023-01-09T07:38:21.845Z,94017.88
2023-01-09T07:40:48.263Z,94014.56
2023-01-09T07:43:14.751Z,94021.81
2023-01-09T07:45:41.147Z,94021.78
2023-01-09T07:48:07.552Z,94025.75
2023-01-09T07:50:34.618Z,94035.09
2023-01-09T07:53:01.028Z,94030.41
2023-01-09T07:55:27.431Z,94034.88
2023-01-09T07:57:53.800Z,94032.53
2023-01-09T08:00:20.732Z,94041.13
2023-01-09T08:02:51.418Z,94042.75
2023-01-09T08:05:18.292Z,94050.00
2023-01-09T08:07:45.366Z,94060.94
2023-01-09T08:10:12.153Z,94065.06
2023-01-09T08:12:42.570Z,94058.00
2023-01-09T08:15:09.794Z,94057.47
2023-01-09T08:17:36.416Z,94052.72
2023-01-09T08:20:02.919Z,94066.25
2023-01-09T08:22:29.344Z,94079.75
2023-01-09T08:24:56.372Z,94078.19
2023-01-09T08:27:22.789Z,94071.53
2023-01-09T08:29:49.221Z,94109.31
2023-01-09T08:32:15.671Z,94094.00
2023-01-09T08:34:42.120Z,94128.84
2023-01-09T08:37:08.539Z,94076.94
2023-01-09T08:39:36.309Z,94106.53
2023-01-09T08:42:21.806Z,94090.09
2023-01-09T08:45:20.764Z,94094.16
2023-01-09T08:47:47.267Z,94111.63
2023-01-09T08:50:14.373Z,94111.63
2023-01-09T08:52:40.774Z,94123.53
2023-01-09T08:55:07.881Z,94150.66
2023-01-09T08:57:35.007Z,94123.22
2023-01-09T09:00:01.798Z,94114.00
2023-01-09T09:02:28.276Z,94128.88
2023-01-09T09:04:55.589Z,94123.44
2023-01-09T09:07:25.934Z,94122.03
2023-01-09T09:09:52.844Z,94116.78
2023-01-09T09:12:19.398Z,94124.59
2023-01-09T09:15:04.552Z,94122.06
2023-01-09T09:17:32.713Z,94123.28
2023-01-09T09:19:59.580Z,94130.09
2023-01-09T09:22:26.462Z,94108.41
2023-01-09T09:24:53.132Z,94106.03
2023-01-09T09:27:19.811Z,94116.59
2023-01-09T09:29:46.851Z,94110.13
2023-01-09T09:32:13.331Z,94116.19
2023-01-09T09:34:40.789Z,94125.78
2023-01-09T09:37:07.730Z,94104.44
2023-01-09T09:39:34.274Z,94117.75
2023-01-09T09:42:33.313Z,94122.84
2023-01-09T09:45:11.930Z,94122.84
2023-01-09T09:47:53.161Z,94126.19
2023-01-09T09:50:35.389Z,94137.38
2023-01-09T09:53:09.916Z,94121.53
2023-01-09T09:55:39.260Z,94125.03
2023-01-09T09:58:15.767Z,94126.22
2023-01-09T10:00:43.057Z,94138.53
2023-01-09T10:03:33.991Z,94136.19
2023-01-09T10:06:05.036Z,94126.22
2023-01-09T10:08:39.433Z,94118.63
2023-01-09T10:11:12.846Z,94107.91
2023-01-09T10:13:57.645Z,94104.63
2023-01-09T10:16:39.675Z,94098.16
2023-01-09T10:19:21.908Z,94119.28
2023-01-09T10:21:56.831Z,94101.28
2023-01-09T10:24:37.184Z,94113.22
2023-01-09T10:27:15.974Z,94110.31
2023-01-09T10:29:55.313Z,94111.50
2023-01-09T10:32:38.458Z,94107.19
2023-01-09T10:35:36.135Z,94106.41
2023-01-09T10:38:13.217Z,94100.13
2023-01-09T10:40:44.834Z,94090.38
2023-01-09T10:43:18.766Z,94100.34
2023-01-09T10:45:51.793Z,94107.03
2023-01-09T10:48:26.046Z,94105.06
2023-01-09T10:50:55.225Z,94108.38
2023-01-09T10:53:25.110Z,94114.66
2023-01-09T10:55:54.730Z,94114.47
2023-01-09T10:58:22.160Z,94108.19
2023-01-09T11:00:50.203Z,94114.44
2023-01-09T11:03:18.649Z,94112.47
2023-01-09T11:05:50.121Z,94101.31
2023-01-09T11:08:23.974Z,94110.53
2023-01-09T11:10:52.712Z,94107.19
2023-01-09T11:13:22.166Z,94103.66
2023-01-09T11:16:00.181Z,94103.09
2023-01-09T11:18:27.409Z,94080.38
2023-01-09T11:20:54.506Z,94103.91
2023-01-09T11:23:30.441Z,94107.22
2023-01-09T11:25:59.241Z,94098.81
2023-01-09T11:28:26.127Z,94107.81
2023-01-09T11:30:55.801Z,94095.47
2023-01-09T11:33:24.813Z,94120.53
2023-01-09T11:36:01.182Z,94117.59
2023-01-09T11:38:29.123Z,94121.53
2023-01-09T11:40:58.324Z,94091.16
2023-01-09T11:43:32.059Z,94101.34
2023-01-09T11:46:02.146Z,94099.97
2023-01-09T11:48:35.283Z,94114.47
2023-01-09T11:51:05.054Z,94103.50
2023-01-09T11:53:48.715Z,94085.47
2023-01-09T11:56:17.182Z,94103.50
2023-01-09T11:58:44.654Z,94093.66
2023-01-09T12:01:25.672Z,94077.59
2023-01-09T12:04:19.573Z,94091.31
2023-01-09T12:07:08.866Z,94082.50
2023-01-09T12:09:43.290Z,94086.97
2023-01-09T12:12:20.883Z,94097.00
2023-01-09T12:15:00.130Z,94085.03
2023-01-09T12:17:56.188Z,94094.84
2023-01-09T12:20:53.582Z,94090.94
2023-01-09T12:23:33.293Z,94081.88
2023-01-09T12:26:12.726Z,94102.84
2023-01-09T12:29:04.384Z,94097.16
2023-01-09T12:31:45.027Z,94111.69
2023-01-09T12:34:28.991Z,94119.75
2023-01-09T12:37:05.875Z,94108.16
2023-01-09T12:39:45.502Z,94110.31
2023-01-09T12:42:27.976Z,94108.53
2023-01-09T12:44:59.035Z,94113.44
2023-01-09T12:47:45.603Z,94117.38
2023-01-09T12:50:31.493Z,94106.97
2023-01-09T12:53:08.969Z,94093.84
2023-01-09T12:55:40.579Z,94125.41
2023-01-09T12:58:16.574Z,94113.81
2023-01-09T13:00:48.879Z,94114.03
2023-01-09T13:03:23.484Z,94099.91
2023-01-09T13:05:52.448Z,94094.63
2023-01-09T13:08:24.490Z,94106.38
2023-01-09T13:10:56.190Z,94120.31
2023-01-09T13:13:28.697Z,94115.19
2023-01-09T13:15:58.182Z,94107.56
2023-01-09T13:18:33.041Z,94102.84
2023-01-09T13:21:02.802Z,94108.16
2023-01-09T13:23:42.108Z,94106.22
2023-01-09T13:26:13.975Z,94096.03
2023-01-09T13:28:46.888Z,94110.53
2023-01-09T13:31:42.948Z,94093.66
2023-01-09T13:34:22.025Z,94097.59
2023-01-09T13:36:52.098Z,94100.53
2023-01-09T13:39:24.862Z,94095.25
2023-01-09T13:42:13.344Z,94096.41
2023-01-09T13:44:40.226Z,94096.63
2023-01-09T13:47:17.243Z,94092.91
2023-01-09T13:50:05.047Z,94093.69
2023-01-09T13:52:36.504Z,94088.59
2023-01-09T13:55:35.065Z,94090.53
2023-01-09T13:58:24.691Z,94105.44
2023-01-09T14:01:09.903Z,94084.84
2023-01-09T14:03:38.134Z,94097.03
2023-01-09T14:06:23.582Z,94085.28
2023-01-09T14:09:11.445Z,94107.63
2023-01-09T14:11:38.486Z,94096.84
2023-01-09T14:14:21.285Z,94115.84
2023-01-09T14:16:47.936Z,94107.41
2023-01-09T14:19:35.717Z,94114.84
2023-01-09T14:22:03.379Z,94111.72
2023-01-09T14:24:33.414Z,94105.66
2023-01-09T14:27:01.419Z,94097.78
2023-01-09T14:29:45.173Z,94118.38
2023-01-09T14:32:38.229Z,94117.59
2023-01-09T14:35:14.771Z,94126.41
2023-01-09T14:37:59.337Z,94130.53
2023-01-09T14:40:25.843Z,94125.84
2023-01-09T14:42:54.983Z,94134.25
2023-01-09T14:45:25.400Z,94126.03
2023-01-09T14:47:56.416Z,94124.47
2023-01-09T14:50:30.346Z,94130.94
2023-01-09T14:53:03.219Z,94132.31
2023-01-09T14:55:34.084Z,94139.94
2023-01-09T14:58:10.653Z,94136.03
2023-01-09T15:00:47.480Z,94131.50
2023-01-09T15:03:14.569Z,94149.75
2023-01-09T15:05:44.907Z,94148.19
2023-01-09T15:08:16.133Z,94146.41
2023-01-09T15:10:45.080Z,94146.81
2023-01-09T15:13:17.799Z,94137.97
2023-01-09T15:15:47.254Z,94137.19
2023-01-09T15:18:20.828Z,94154.44
2023-01-09T15:20:52.742Z,94132.50
2023-01-09T15:23:24.483Z,94139.75
2023-01-09T15:25:51.387Z,94151.28
2023-01-09T15:28:31.276Z,94146.00
2023-01-09T15:31:05.566Z,94132.69
2023-01-09T15:33:33.348Z,94147.97
2023-01-09T15:36:02.724Z,94158.75
2023-01-09T15:38:32.237Z,94155.03
2023-01-09T15:41:00.833Z,94158.34
2023-01-09T15:43:29.725Z,94154.41
2023-01-09T15:45:58.127Z,94157.94
2023-01-09T15:48:28.642Z,94151.66
2023-01-09T15:50:59.006Z,94174.38
2023-01-09T15:53:37.207Z,94174.38
2023-01-09T15:56:19.559Z,94182.56
2023-01-09T15:58:50.185Z,94166.88
2023-01-09T16:01:27.216Z,94172.72
2023-01-09T16:03:57.925Z,94182.50
2023-01-09T16:06:27.929Z,94188.53
2023-01-09T16:08:57.121Z,94204.56
2023-01-09T16:11:25.983Z,94208.28
2023-01-09T16:13:57.299Z,94203.75
2023-01-09T16:16:29.644Z,94194.13
2023-01-09T16:18:58.345Z,94214.88
2023-01-09T16:21:35.847Z,94225.44
2023-01-09T16:24:21.075Z,94209.81
2023-01-09T16:26:47.497Z,94217.63
2023-01-09T16:29:27.970Z,94219.94
2023-01-09T16:32:02.042Z,94199.97
2023-01-09T16:34:29.741Z,94204.06
2023-01-09T16:36:57.102Z,94201.09
2023-01-09T16:39:24.800Z,94215.00
2023-01-09T16:42:09.554Z,94218.69
2023-01-09T16:44:40.382Z,94213.41
2023-01-09T16:47:18.007Z,94238.66
2023-01-09T16:49:45.442Z,94234.72
2023-01-09T16:52:16.759Z,94245.06
2023-01-09T16:54:46.134Z,94228.06
2023-01-09T16:57:16.728Z,94248.94
2023-01-09T16:59:43.330Z,94233.34
2023-01-09T17:02:16.557Z,94263.97
2023-01-09T17:04:42.966Z,94258.53
2023-01-09T17:07:15.060Z,94260.47
2023-01-09T17:09:41.512Z,94270.44
2023-01-09T17:12:15.142Z,94272.19
2023-01-09T17:14:42.757Z,94255.72
2023-01-09T17:17:10.543Z,94277.41
2023-01-09T17:19:37.159Z,94270.91
2023-01-09T17:22:03.838Z,94289.31
2023-01-09T17:24:49.704Z,94290.88
2023-01-09T17:27:42.361Z,94296.50
2023-01-09T17:30:18.370Z,94295.13
2023-01-09T17:32:46.435Z,94303.28
2023-01-09T17:35:14.633Z,94312.31
2023-01-09T17:37:41.867Z,94316.72
2023-01-09T17:40:17.690Z,94321.50
2023-01-09T17:42:44.154Z,94321.63
2023-01-09T17:45:11.530Z,94317.47
2023-01-09T17:47:38.376Z,94325.38
2023-01-09T17:50:06.025Z,94323.81
2023-01-09T17:52:32.602Z,94328.03
2023-01-09T17:55:04.272Z,94327.44
2023-01-09T17:57:31.510Z,94335.00
2023-01-09T17:59:58.319Z,94352.94
2023-01-09T18:02:24.832Z,94347.34
2023-01-09T18:04:51.240Z,94352.78
2023-01-09T18:07:18.232Z,94355.50
2023-01-09T18:09:44.850Z,94361.97
2023-01-09T18:12:11.644Z,94366.09
2023-01-09T18:14:39.963Z,94369.63
2023-01-09T18:17:06.709Z,94375.31
2023-01-09T18:19:33.728Z,94377.09
2023-01-09T18:22:00.132Z,94375.72
2023-01-09T18:24:26.568Z,94371.59
2023-01-09T18:26:53.615Z,94385.78
2023-01-09T18:29:20.580Z,94383.34
2023-01-09T18:31:47.776Z,94380.50
2023-01-09T18:34:14.169Z,94383.81
2023-01-09T18:36:40.689Z,94388.19
2023-01-09T18:39:08.026Z,94382.50
2023-01-09T18:41:34.473Z,94380.94
2023-01-09T18:44:01.402Z,94378.22
2023-01-09T18:46:31.130Z,94377.94
2023-01-09T18:48:59.778Z,94378.06
2023-01-09T18:51:27.495Z,94381.72
2023-01-09T18:53:54.677Z,94401.41
2023-01-09T18:56:21.637Z,94396.53
2023-01-09T18:58:48.353Z,94404.66
2023-01-09T19:01:15.917Z,94411.22
2023-01-09T19:03:42.479Z,94401.06
2023-01-09T19:06:10.211Z,94418.47
2023-01-09T19:08:36.673Z,94413.91
2023-01-09T19:11:03.703Z,94418.66
2023-01-09T19:13:31.932Z,94431.84
2023-01-09T19:15:59.524Z,94438.88
2023-01-09T19:18:27.240Z,94428.91
2023-01-09T19:20:54.512Z,94424.16
2023-01-09T19:23:23.824Z,94433.88
2023-01-09T19:25:51.457Z,94447.34
2023-01-09T19:28:17.978Z,94449.59
2023-01-09T19:30:44.420Z,94435.16
2023-01-09T19:33:11.835Z,94448.88
2023-01-09T19:35:39.227Z,94448.63
2023-01-09T19:38:06.029Z,94469.53
2023-01-09T19:40:33.231Z,94457.44
2023-01-09T19:42:59.629Z,94465.06
2023-01-09T19:45:26.110Z,94480.09
2023-01-09T19:47:52.491Z,94473.66
2023-01-09T19:50:19.076Z,94482.47
2023-01-09T19:52:45.766Z,94484.56
2023-01-09T19:55:13.549Z,94487.81
2023-01-09T19:57:40.628Z,94500.22
2023-01-09T20:00:08.833Z,94498.03
2023-01-09T20:02:38.915Z,94504.75
2023-01-09T20:05:06.398Z,94521.28
2023-01-09T20:07:34.048Z,94519.56
2023-01-09T20:10:00.607Z,94502.59
2023-01-09T20:12:27.253Z,94515.78
2023-01-09T20:14:54.325Z,94506.59
2023-01-09T20:17:20.738Z,94517.19
2023-01-09T20:19:47.161Z,94525.34
2023-01-09T20:22:13.597Z,94519.81
2023-01-09T20:24:40.067Z,94520.75
2023-01-09T20:27:06.544Z,94522.16
2023-01-09T20:29:33.675Z,94526.72
2023-01-09T20:32:04.725Z,94536.06
2023-01-09T20:34:31.237Z,94524.53
2023-01-09T20:36:57.681Z,94520.25
2023-01-09T20:39:24.237Z,94522.34
2023-01-09T20:41:50.647Z,94534.06
2023-01-09T20:44:17.053Z,94536.25
2023-01-09T20:46:47.090Z,94544.13
2023-01-09T20:49:16.180Z,94544.13
2023-01-09T20:51:45.257Z,94550.91
2023-01-09T20:54:11.732Z,94555.81
2023-01-09T20:56:38.102Z,94547.59
2023-01-09T20:59:05.678Z,94566.25
2023-01-09T21:01:32.365Z,94571.31
2023-01-09T21:03:58.858Z,94557.06
2023-01-09T21:06:27.260Z,94561.06
2023-01-09T21:08:53.911Z,94573.44
2023-01-09T21:11:20.894Z,94575.03
2023-01-09T21:13:47.741Z,94567.75
2023-01-09T21:16:16.882Z,94567.28
2023-01-09T21:18:43.867Z,94575.59
2023-01-09T21:21:12.575Z,94565.16
2023-01-09T21:23:44.003Z,94561.13
2023-01-09T21:26:12.854Z,94560.59
2023-01-09T21:28:45.467Z,94577.84
2023-01-09T21:31:12.005Z,94574.53
2023-01-09T21:33:38.523Z,94575.94
2023-01-09T21:36:06.138Z,94586.25
2023-01-09T21:38:32.688Z,94584.34
2023-01-09T21:41:19.878Z,94587.19
2023-01-09T21:44:04.438Z,94593.56
2023-01-09T21:46:49.079Z,94594.34
2023-01-09T21:49:17.505Z,94596.44
2023-01-09T21:51:44.166Z,94603.56
2023-01-09T21:54:10.918Z,94599.47
2023-01-09T21:56:37.971Z,94597.13
2023-01-09T21:59:04.530Z,94606.47
2023-01-09T22:01:30.929Z,94591.09
2023-01-09T22:03:57.553Z,94592.50
2023-01-09T22:06:24.009Z,94593.78
2023-01-09T22:08:50.675Z,94609.47
2023-01-09T22:11:17.035Z,94614.06
2023-01-09T22:13:47.501Z,94602.34
2023-01-09T22:16:13.993Z,94609.47
2023-01-09T22:18:40.514Z,94615.47
2023-01-09T22:21:07.024Z,94621.97
2023-01-09T22:23:34.602Z,94628.94
2023-01-09T22:26:06.977Z,94632.34
2023-01-09T22:28:33.390Z,94653.16
2023-01-09T22:31:00.459Z,94655.53
2023-01-09T22:33:26.904Z,94666.09
2023-01-09T22:35:53.281Z,94658.84
2023-01-09T22:38:20.065Z,94656.72
2023-01-09T22:40:46.509Z,94662.75
2023-01-09T22:43:15.413Z,94665.31
2023-01-09T22:45:41.926Z,94664.19
2023-01-09T22:48:09.213Z,94668.16
2023-01-09T22:50:36.085Z,94666.47
2023-01-09T22:53:02.563Z,94677.81
2023-01-09T22:55:28.979Z,94672.28
2023-01-09T22:57:55.413Z,94676.38
2023-01-09T23:00:25.504Z,94673.06
2023-01-09T23:02:52.070Z,94691.28
2023-01-09T23:05:19.290Z,94674.81
2023-01-09T23:07:45.733Z,94694.44
2023-01-09T23:10:12.184Z,94676.22
2023-01-09T23:12:38.586Z,94677.94
2023-01-09T23:15:06.276Z,94684.94
2023-01-09T23:17:32.678Z,94696.03
2023-01-09T23:19:59.089Z,94702.81
2023-01-09T23:22:26.196Z,94691.88
2023-01-09T23:24:52.611Z,94690.78
2023-01-09T23:27:18.977Z,94700.00
2023-01-09T23:29:45.679Z,94681.47
2023-01-09T23:32:13.250Z,94701.41
2023-01-09T23:34:40.849Z,94702.53
2023-01-09T23:37:08.926Z,94683.38
2023-01-09T23:39:36.133Z,94691.59
2023-01-09T23:42:20.545Z,94695.41
2023-01-09T23:44:46.998Z,94695.25
2023-01-09T23:47:13.392Z,94705.75
2023-01-09T23:49:39.829Z,94693.88
2023-01-09T23:52:07.869Z,94698.91
2023-01-09T23:54:34.852Z,94707.97
2023-01-09T23:57:01.882Z,94708.13
2023-01-09T23:59:28.356Z,94711.34
